sensor_id;sensor_type;location;lat;lon;timestamp;P1;durP1;ratioP1;P2;durP2;ratioP2
11287;SDS011;5700;50.996;7.044;2022-08-21T00:00:57;12.27;;;5.80;;
11287;SDS011;5700;50.996;7.044;2022-08-21T00:04:03;9.88;;;5.45;;
11287;SDS011;5700;50.996;7.044;2022-08-21T00:07:05;11.23;;;5.75;;
11287;SDS011;5700;50.996;7.044;2022-08-21T00:10:09;9.73;;;5.75;;
11287;SDS011;5700;50.996;7.044;2022-08-21T00:13:11;12.90;;;5.60;;
11287;SDS011;5700;50.996;7.044;2022-08-21T00:16:13;13.07;;;5.85;;
11287;SDS011;5700;50.996;7.044;2022-08-21T00:19:14;11.30;;;6.18;;
11287;SDS011;5700;50.996;7.044;2022-08-21T00:22:15;9.88;;;5.60;;
11287;SDS011;5700;50.996;7.044;2022-08-21T00:25:19;11.27;;;5.35;;
11287;SDS011;5700;50.996;7.044;2022-08-21T00:28:21;10.27;;;5.72;;
11287;SDS011;5700;50.996;7.044;2022-08-21T00:31:22;9.27;;;5.53;;
11287;SDS011;5700;50.996;7.044;2022-08-21T00:34:24;11.90;;;5.72;;
11287;SDS011;5700;50.996;7.044;2022-08-21T00:37:25;11.80;;;6.32;;
11287;SDS011;5700;50.996;7.044;2022-08-21T00:40:29;11.68;;;6.28;;
11287;SDS011;5700;50.996;7.044;2022-08-21T00:43:33;9.77;;;6.00;;
11287;SDS011;5700;50.996;7.044;2022-08-21T00:46:36;11.77;;;5.72;;
11287;SDS011;5700;50.996;7.044;2022-08-21T00:49:39;11.50;;;6.10;;
11287;SDS011;5700;50.996;7.044;2022-08-21T00:52:41;10.18;;;5.55;;
11287;SDS011;5700;50.996;7.044;2022-08-21T00:55:45;9.13;;;5.50;;
11287;SDS011;5700;50.996;7.044;2022-08-21T00:58:47;11.13;;;6.20;;
11287;SDS011;5700;50.996;7.044;2022-08-21T01:01:49;10.38;;;5.82;;
11287;SDS011;5700;50.996;7.044;2022-08-21T01:04:52;10.43;;;5.75;;
11287;SDS011;5700;50.996;7.044;2022-08-21T01:07:54;10.55;;;5.90;;
11287;SDS011;5700;50.996;7.044;2022-08-21T01:10:58;10.75;;;6.20;;
11287;SDS011;5700;50.996;7.044;2022-08-21T01:14:00;9.43;;;6.13;;
11287;SDS011;5700;50.996;7.044;2022-08-21T01:17:02;13.85;;;6.57;;
11287;SDS011;5700;50.996;7.044;2022-08-21T01:20:05;11.25;;;6.30;;
11287;SDS011;5700;50.996;7.044;2022-08-21T01:23:10;12.70;;;6.65;;
11287;SDS011;5700;50.996;7.044;2022-08-21T01:26:13;14.43;;;6.65;;
11287;SDS011;5700;50.996;7.044;2022-08-21T01:29:20;12.13;;;7.03;;
11287;SDS011;5700;50.996;7.044;2022-08-21T01:32:27;13.68;;;7.30;;
11287;SDS011;5700;50.996;7.044;2022-08-21T01:35:28;10.32;;;6.03;;
11287;SDS011;5700;50.996;7.044;2022-08-21T01:38:31;12.15;;;7.00;;
11287;SDS011;5700;50.996;7.044;2022-08-21T01:41:33;11.70;;;6.05;;
11287;SDS011;5700;50.996;7.044;2022-08-21T01:44:34;10.95;;;6.20;;
11287;SDS011;5700;50.996;7.044;2022-08-21T01:47:36;13.07;;;7.38;;
11287;SDS011;5700;50.996;7.044;2022-08-21T01:50:37;10.48;;;6.40;;
11287;SDS011;5700;50.996;7.044;2022-08-21T01:53:40;9.65;;;6.38;;
11287;SDS011;5700;50.996;7.044;2022-08-21T01:56:42;11.32;;;6.45;;
11287;SDS011;5700;50.996;7.044;2022-08-21T01:59:46;11.23;;;6.03;;
11287;SDS011;5700;50.996;7.044;2022-08-21T02:02:47;11.00;;;7.22;;
11287;SDS011;5700;50.996;7.044;2022-08-21T02:05:49;10.23;;;6.43;;
11287;SDS011;5700;50.996;7.044;2022-08-21T02:08:52;12.68;;;6.97;;
11287;SDS011;5700;50.996;7.044;2022-08-21T02:11:54;15.05;;;6.72;;
11287;SDS011;5700;50.996;7.044;2022-08-21T02:14:55;14.80;;;7.25;;
11287;SDS011;5700;50.996;7.044;2022-08-21T02:17:58;12.27;;;6.78;;
11287;SDS011;5700;50.996;7.044;2022-08-21T02:21:01;10.57;;;6.47;;
11287;SDS011;5700;50.996;7.044;2022-08-21T02:24:05;15.82;;;6.90;;
11287;SDS011;5700;50.996;7.044;2022-08-21T02:27:07;12.10;;;6.90;;
11287;SDS011;5700;50.996;7.044;2022-08-21T02:30:10;12.93;;;7.25;;
11287;SDS011;5700;50.996;7.044;2022-08-21T02:33:13;13.00;;;6.50;;
11287;SDS011;5700;50.996;7.044;2022-08-21T02:36:16;12.88;;;7.20;;
11287;SDS011;5700;50.996;7.044;2022-08-21T02:39:18;13.98;;;7.60;;
11287;SDS011;5700;50.996;7.044;2022-08-21T02:42:20;11.20;;;6.55;;
11287;SDS011;5700;50.996;7.044;2022-08-21T02:45:22;12.75;;;6.82;;
11287;SDS011;5700;50.996;7.044;2022-08-21T02:48:25;9.68;;;5.80;;
11287;SDS011;5700;50.996;7.044;2022-08-21T02:51:27;12.23;;;7.00;;
11287;SDS011;5700;50.996;7.044;2022-08-21T02:54:30;11.35;;;6.78;;
11287;SDS011;5700;50.996;7.044;2022-08-21T02:57:31;16.25;;;7.30;;
11287;SDS011;5700;50.996;7.044;2022-08-21T03:00:34;11.98;;;6.78;;
11287;SDS011;5700;50.996;7.044;2022-08-21T03:03:37;9.48;;;6.13;;
11287;SDS011;5700;50.996;7.044;2022-08-21T03:06:39;13.07;;;6.65;;
11287;SDS011;5700;50.996;7.044;2022-08-21T03:09:42;11.25;;;6.50;;
11287;SDS011;5700;50.996;7.044;2022-08-21T03:12:43;10.27;;;6.18;;
11287;SDS011;5700;50.996;7.044;2022-08-21T03:15:45;10.18;;;6.13;;
11287;SDS011;5700;50.996;7.044;2022-08-21T03:18:46;13.00;;;6.38;;
11287;SDS011;5700;50.996;7.044;2022-08-21T03:21:48;13.93;;;6.53;;
11287;SDS011;5700;50.996;7.044;2022-08-21T03:24:50;12.18;;;6.10;;
11287;SDS011;5700;50.996;7.044;2022-08-21T03:27:52;12.27;;;6.07;;
11287;SDS011;5700;50.996;7.044;2022-08-21T03:30:54;10.95;;;5.53;;
11287;SDS011;5700;50.996;7.044;2022-08-21T03:33:57;9.82;;;5.88;;
11287;SDS011;5700;50.996;7.044;2022-08-21T03:36:58;13.20;;;6.70;;
11287;SDS011;5700;50.996;7.044;2022-08-21T03:40:01;11.75;;;6.95;;
11287;SDS011;5700;50.996;7.044;2022-08-21T03:43:03;8.70;;;5.80;;
11287;SDS011;5700;50.996;7.044;2022-08-21T03:46:09;9.05;;;5.93;;
11287;SDS011;5700;50.996;7.044;2022-08-21T03:49:11;12.60;;;5.90;;
11287;SDS011;5700;50.996;7.044;2022-08-21T03:52:13;11.05;;;6.15;;
11287;SDS011;5700;50.996;7.044;2022-08-21T03:55:16;10.20;;;5.93;;
11287;SDS011;5700;50.996;7.044;2022-08-21T03:58:21;8.75;;;5.60;;
11287;SDS011;5700;50.996;7.044;2022-08-21T04:01:24;10.93;;;5.70;;
11287;SDS011;5700;50.996;7.044;2022-08-21T04:04:26;8.32;;;5.22;;
11287;SDS011;5700;50.996;7.044;2022-08-21T04:07:29;9.18;;;5.95;;
11287;SDS011;5700;50.996;7.044;2022-08-21T04:10:32;10.57;;;6.03;;
11287;SDS011;5700;50.996;7.044;2022-08-21T04:13:35;10.52;;;6.05;;
11287;SDS011;5700;50.996;7.044;2022-08-21T04:16:36;10.07;;;5.72;;
11287;SDS011;5700;50.996;7.044;2022-08-21T04:19:38;10.05;;;6.32;;
11287;SDS011;5700;50.996;7.044;2022-08-21T04:22:39;11.93;;;6.10;;
11287;SDS011;5700;50.996;7.044;2022-08-21T04:25:42;10.98;;;6.20;;
11287;SDS011;5700;50.996;7.044;2022-08-21T04:28:44;11.93;;;6.10;;
11287;SDS011;5700;50.996;7.044;2022-08-21T04:31:45;10.52;;;5.75;;
11287;SDS011;5700;50.996;7.044;2022-08-21T04:34:47;9.75;;;5.68;;
11287;SDS011;5700;50.996;7.044;2022-08-21T04:37:48;11.35;;;5.78;;
11287;SDS011;5700;50.996;7.044;2022-08-21T04:40:52;9.13;;;5.57;;
11287;SDS011;5700;50.996;7.044;2022-08-21T04:43:54;13.05;;;6.57;;
11287;SDS011;5700;50.996;7.044;2022-08-21T04:46:55;10.50;;;6.40;;
11287;SDS011;5700;50.996;7.044;2022-08-21T04:49:57;11.85;;;5.75;;
11287;SDS011;5700;50.996;7.044;2022-08-21T04:52:59;11.93;;;6.05;;
11287;SDS011;5700;50.996;7.044;2022-08-21T04:56:03;10.43;;;5.40;;
11287;SDS011;5700;50.996;7.044;2022-08-21T04:59:10;12.20;;;5.63;;
11287;SDS011;5700;50.996;7.044;2022-08-21T05:02:13;11.75;;;5.60;;
11287;SDS011;5700;50.996;7.044;2022-08-21T05:05:15;10.13;;;6.10;;
11287;SDS011;5700;50.996;7.044;2022-08-21T05:08:17;9.45;;;5.07;;
11287;SDS011;5700;50.996;7.044;2022-08-21T05:11:22;10.45;;;5.88;;
11287;SDS011;5700;50.996;7.044;2022-08-21T05:14:23;9.07;;;5.45;;
11287;SDS011;5700;50.996;7.044;2022-08-21T05:17:25;11.68;;;5.88;;
11287;SDS011;5700;50.996;7.044;2022-08-21T05:20:29;12.07;;;5.75;;
11287;SDS011;5700;50.996;7.044;2022-08-21T05:23:31;9.40;;;5.75;;
11287;SDS011;5700;50.996;7.044;2022-08-21T05:26:34;10.90;;;5.95;;
11287;SDS011;5700;50.996;7.044;2022-08-21T05:29:36;11.30;;;5.80;;
11287;SDS011;5700;50.996;7.044;2022-08-21T05:32:38;10.43;;;6.03;;
11287;SDS011;5700;50.996;7.044;2022-08-21T05:35:39;14.60;;;6.15;;
11287;SDS011;5700;50.996;7.044;2022-08-21T05:38:41;10.30;;;5.82;;
11287;SDS011;5700;50.996;7.044;2022-08-21T05:41:44;10.52;;;6.60;;
11287;SDS011;5700;50.996;7.044;2022-08-21T05:44:46;10.65;;;5.70;;
11287;SDS011;5700;50.996;7.044;2022-08-21T05:47:47;10.57;;;5.75;;
11287;SDS011;5700;50.996;7.044;2022-08-21T05:50:49;8.13;;;5.65;;
11287;SDS011;5700;50.996;7.044;2022-08-21T05:53:51;11.77;;;5.90;;
11287;SDS011;5700;50.996;7.044;2022-08-21T05:56:54;13.63;;;6.40;;
11287;SDS011;5700;50.996;7.044;2022-08-21T05:59:56;11.80;;;6.47;;
11287;SDS011;5700;50.996;7.044;2022-08-21T06:02:57;10.57;;;6.07;;
11287;SDS011;5700;50.996;7.044;2022-08-21T06:05:59;18.13;;;8.73;;
11287;SDS011;5700;50.996;7.044;2022-08-21T06:09:01;14.80;;;8.00;;
11287;SDS011;5700;50.996;7.044;2022-08-21T06:12:04;16.08;;;7.50;;
11287;SDS011;5700;50.996;7.044;2022-08-21T06:15:07;9.73;;;6.53;;
11287;SDS011;5700;50.996;7.044;2022-08-21T06:18:09;9.93;;;6.35;;
11287;SDS011;5700;50.996;7.044;2022-08-21T06:21:10;14.73;;;7.30;;
11287;SDS011;5700;50.996;7.044;2022-08-21T06:24:13;12.77;;;7.00;;
11287;SDS011;5700;50.996;7.044;2022-08-21T06:27:15;11.75;;;7.05;;
11287;SDS011;5700;50.996;7.044;2022-08-21T06:30:17;14.27;;;6.88;;
11287;SDS011;5700;50.996;7.044;2022-08-21T06:33:19;9.73;;;6.30;;
11287;SDS011;5700;50.996;7.044;2022-08-21T06:36:20;15.20;;;7.03;;
11287;SDS011;5700;50.996;7.044;2022-08-21T06:39:22;14.93;;;7.47;;
11287;SDS011;5700;50.996;7.044;2022-08-21T06:42:24;11.48;;;6.88;;
11287;SDS011;5700;50.996;7.044;2022-08-21T06:45:27;15.05;;;6.90;;
11287;SDS011;5700;50.996;7.044;2022-08-21T06:48:29;13.25;;;5.68;;
11287;SDS011;5700;50.996;7.044;2022-08-21T06:51:32;12.18;;;5.90;;
11287;SDS011;5700;50.996;7.044;2022-08-21T06:54:33;14.38;;;5.53;;
11287;SDS011;5700;50.996;7.044;2022-08-21T06:57:36;11.80;;;6.60;;
11287;SDS011;5700;50.996;7.044;2022-08-21T07:00:38;9.10;;;5.45;;
11287;SDS011;5700;50.996;7.044;2022-08-21T07:03:41;11.90;;;5.90;;
11287;SDS011;5700;50.996;7.044;2022-08-21T07:06:43;11.95;;;5.90;;
11287;SDS011;5700;50.996;7.044;2022-08-21T07:09:45;11.35;;;5.40;;
11287;SDS011;5700;50.996;7.044;2022-08-21T07:12:47;11.55;;;5.55;;
11287;SDS011;5700;50.996;7.044;2022-08-21T07:15:49;11.50;;;5.78;;
11287;SDS011;5700;50.996;7.044;2022-08-21T07:18:51;9.52;;;5.18;;
11287;SDS011;5700;50.996;7.044;2022-08-21T07:21:52;11.32;;;5.32;;
11287;SDS011;5700;50.996;7.044;2022-08-21T07:24:54;10.40;;;5.05;;
11287;SDS011;5700;50.996;7.044;2022-08-21T07:27:57;16.58;;;5.72;;
11287;SDS011;5700;50.996;7.044;2022-08-21T07:30:59;9.73;;;5.22;;
11287;SDS011;5700;50.996;7.044;2022-08-21T07:34:01;9.50;;;5.10;;
11287;SDS011;5700;50.996;7.044;2022-08-21T07:37:02;11.05;;;5.63;;
11287;SDS011;5700;50.996;7.044;2022-08-21T07:40:04;7.72;;;3.85;;
11287;SDS011;5700;50.996;7.044;2022-08-21T07:43:07;8.75;;;4.53;;
11287;SDS011;5700;50.996;7.044;2022-08-21T07:46:09;8.13;;;4.95;;
11287;SDS011;5700;50.996;7.044;2022-08-21T07:49:10;10.13;;;4.50;;
11287;SDS011;5700;50.996;7.044;2022-08-21T07:52:12;7.55;;;4.13;;
11287;SDS011;5700;50.996;7.044;2022-08-21T07:55:14;10.45;;;4.40;;
11287;SDS011;5700;50.996;7.044;2022-08-21T07:58:18;8.52;;;4.82;;
11287;SDS011;5700;50.996;7.044;2022-08-21T08:01:19;13.05;;;4.82;;
11287;SDS011;5700;50.996;7.044;2022-08-21T08:04:21;8.48;;;4.18;;
11287;SDS011;5700;50.996;7.044;2022-08-21T08:07:22;7.30;;;3.60;;
11287;SDS011;5700;50.996;7.044;2022-08-21T08:10:24;7.47;;;3.20;;
11287;SDS011;5700;50.996;7.044;2022-08-21T08:13:27;5.57;;;2.90;;
11287;SDS011;5700;50.996;7.044;2022-08-21T08:16:29;10.90;;;4.25;;
11287;SDS011;5700;50.996;7.044;2022-08-21T08:19:30;4.82;;;2.40;;
11287;SDS011;5700;50.996;7.044;2022-08-21T08:22:33;7.00;;;2.35;;
11287;SDS011;5700;50.996;7.044;2022-08-21T08:25:35;8.00;;;2.67;;
11287;SDS011;5700;50.996;7.044;2022-08-21T08:28:38;6.15;;;2.40;;
11287;SDS011;5700;50.996;7.044;2022-08-21T08:31:39;6.47;;;2.65;;
11287;SDS011;5700;50.996;7.044;2022-08-21T08:34:40;6.65;;;3.03;;
11287;SDS011;5700;50.996;7.044;2022-08-21T08:37:42;7.78;;;2.08;;
11287;SDS011;5700;50.996;7.044;2022-08-21T08:40:46;6.60;;;2.30;;
11287;SDS011;5700;50.996;7.044;2022-08-21T08:43:55;7.60;;;1.92;;
11287;SDS011;5700;50.996;7.044;2022-08-21T08:46:59;5.05;;;1.85;;
11287;SDS011;5700;50.996;7.044;2022-08-21T08:50:03;3.42;;;1.50;;
11287;SDS011;5700;50.996;7.044;2022-08-21T08:53:07;6.75;;;1.70;;
11287;SDS011;5700;50.996;7.044;2022-08-21T08:56:12;5.10;;;1.95;;
11287;SDS011;5700;50.996;7.044;2022-08-21T08:59:19;4.90;;;1.38;;
11287;SDS011;5700;50.996;7.044;2022-08-21T09:02:23;7.95;;;1.88;;
11287;SDS011;5700;50.996;7.044;2022-08-21T09:05:25;10.85;;;1.67;;
11287;SDS011;5700;50.996;7.044;2022-08-21T09:08:32;5.80;;;1.20;;
11287;SDS011;5700;50.996;7.044;2022-08-21T09:11:45;4.30;;;1.60;;
11287;SDS011;5700;50.996;7.044;2022-08-21T09:14:54;6.35;;;1.45;;
11287;SDS011;5700;50.996;7.044;2022-08-21T09:18:07;6.50;;;1.42;;
11287;SDS011;5700;50.996;7.044;2022-08-21T09:21:18;10.77;;;1.75;;
11287;SDS011;5700;50.996;7.044;2022-08-21T09:24:25;4.82;;;1.35;;
11287;SDS011;5700;50.996;7.044;2022-08-21T09:27:31;7.10;;;1.67;;
11287;SDS011;5700;50.996;7.044;2022-08-21T09:30:34;5.25;;;1.30;;
11287;SDS011;5700;50.996;7.044;2022-08-21T09:33:36;6.75;;;1.58;;
11287;SDS011;5700;50.996;7.044;2022-08-21T09:36:38;4.60;;;1.40;;
11287;SDS011;5700;50.996;7.044;2022-08-21T09:39:41;4.70;;;1.50;;
11287;SDS011;5700;50.996;7.044;2022-08-21T09:42:53;5.25;;;1.20;;
11287;SDS011;5700;50.996;7.044;2022-08-21T09:46:06;4.57;;;1.35;;
11287;SDS011;5700;50.996;7.044;2022-08-21T09:49:10;3.75;;;1.23;;
11287;SDS011;5700;50.996;7.044;2022-08-21T09:52:15;5.65;;;1.55;;
11287;SDS011;5700;50.996;7.044;2022-08-21T09:55:25;4.88;;;1.30;;
11287;SDS011;5700;50.996;7.044;2022-08-21T09:58:46;4.13;;;1.40;;
11287;SDS011;5700;50.996;7.044;2022-08-21T10:01:52;6.18;;;1.10;;
11287;SDS011;5700;50.996;7.044;2022-08-21T10:04:55;4.72;;;1.20;;
11287;SDS011;5700;50.996;7.044;2022-08-21T10:07:59;6.35;;;1.17;;
11287;SDS011;5700;50.996;7.044;2022-08-21T10:11:02;4.22;;;1.30;;
11287;SDS011;5700;50.996;7.044;2022-08-21T10:14:10;4.25;;;1.42;;
11287;SDS011;5700;50.996;7.044;2022-08-21T10:17:20;4.10;;;1.15;;
11287;SDS011;5700;50.996;7.044;2022-08-21T10:20:27;4.40;;;1.25;;
11287;SDS011;5700;50.996;7.044;2022-08-21T10:23:37;6.65;;;1.65;;
11287;SDS011;5700;50.996;7.044;2022-08-21T10:26:48;2.45;;;1.20;;
11287;SDS011;5700;50.996;7.044;2022-08-21T10:29:57;4.00;;;1.00;;
11287;SDS011;5700;50.996;7.044;2022-08-21T10:33:05;2.72;;;1.05;;
11287;SDS011;5700;50.996;7.044;2022-08-21T10:36:14;5.05;;;1.40;;
11287;SDS011;5700;50.996;7.044;2022-08-21T10:39:21;7.97;;;1.25;;
11287;SDS011;5700;50.996;7.044;2022-08-21T10:42:29;5.22;;;1.02;;
11287;SDS011;5700;50.996;7.044;2022-08-21T10:45:41;4.97;;;0.90;;
11287;SDS011;5700;50.996;7.044;2022-08-21T10:48:49;4.43;;;1.23;;
11287;SDS011;5700;50.996;7.044;2022-08-21T10:51:54;5.47;;;1.25;;
11287;SDS011;5700;50.996;7.044;2022-08-21T10:55:02;3.78;;;1.00;;
11287;SDS011;5700;50.996;7.044;2022-08-21T10:58:09;2.95;;;1.10;;
11287;SDS011;5700;50.996;7.044;2022-08-21T11:01:12;6.90;;;1.30;;
11287;SDS011;5700;50.996;7.044;2022-08-21T11:04:18;5.20;;;1.23;;
11287;SDS011;5700;50.996;7.044;2022-08-21T11:07:26;3.33;;;1.10;;
11287;SDS011;5700;50.996;7.044;2022-08-21T11:10:31;2.90;;;1.20;;
11287;SDS011;5700;50.996;7.044;2022-08-21T11:13:37;5.28;;;1.05;;
11287;SDS011;5700;50.996;7.044;2022-08-21T11:16:41;2.90;;;0.73;;
11287;SDS011;5700;50.996;7.044;2022-08-21T11:19:46;3.67;;;1.15;;
11287;SDS011;5700;50.996;7.044;2022-08-21T11:22:49;1.60;;;0.70;;
11287;SDS011;5700;50.996;7.044;2022-08-21T11:25:56;4.50;;;1.20;;
11287;SDS011;5700;50.996;7.044;2022-08-21T11:29:02;6.13;;;1.15;;
11287;SDS011;5700;50.996;7.044;2022-08-21T11:32:13;4.07;;;1.02;;
11287;SDS011;5700;50.996;7.044;2022-08-21T11:35:30;6.45;;;1.35;;
11287;SDS011;5700;50.996;7.044;2022-08-21T11:38:35;7.13;;;1.15;;
11287;SDS011;5700;50.996;7.044;2022-08-21T11:41:43;4.80;;;1.00;;
11287;SDS011;5700;50.996;7.044;2022-08-21T11:44:49;5.30;;;1.20;;
11287;SDS011;5700;50.996;7.044;2022-08-21T11:47:56;9.07;;;1.20;;
11287;SDS011;5700;50.996;7.044;2022-08-21T11:51:03;7.90;;;1.40;;
11287;SDS011;5700;50.996;7.044;2022-08-21T11:54:09;3.80;;;1.08;;
11287;SDS011;5700;50.996;7.044;2022-08-21T11:57:23;2.88;;;0.85;;
11287;SDS011;5700;50.996;7.044;2022-08-21T12:00:26;2.58;;;0.73;;
11287;SDS011;5700;50.996;7.044;2022-08-21T12:03:31;6.63;;;1.25;;
11287;SDS011;5700;50.996;7.044;2022-08-21T12:06:36;2.90;;;0.90;;
11287;SDS011;5700;50.996;7.044;2022-08-21T12:09:39;4.88;;;1.50;;
11287;SDS011;5700;50.996;7.044;2022-08-21T12:12:41;3.45;;;0.95;;
11287;SDS011;5700;50.996;7.044;2022-08-21T12:15:44;2.63;;;1.02;;
11287;SDS011;5700;50.996;7.044;2022-08-21T12:18:45;2.42;;;0.90;;
11287;SDS011;5700;50.996;7.044;2022-08-21T12:21:50;3.92;;;1.02;;
11287;SDS011;5700;50.996;7.044;2022-08-21T12:24:53;3.78;;;0.80;;
11287;SDS011;5700;50.996;7.044;2022-08-21T12:28:07;4.28;;;0.93;;
11287;SDS011;5700;50.996;7.044;2022-08-21T12:31:17;3.15;;;0.90;;
11287;SDS011;5700;50.996;7.044;2022-08-21T12:34:22;5.60;;;1.08;;
11287;SDS011;5700;50.996;7.044;2022-08-21T12:37:29;3.95;;;0.80;;
11287;SDS011;5700;50.996;7.044;2022-08-21T12:40:42;4.35;;;1.05;;
11287;SDS011;5700;50.996;7.044;2022-08-21T12:43:46;3.88;;;1.00;;
11287;SDS011;5700;50.996;7.044;2022-08-21T12:46:50;2.53;;;0.90;;
11287;SDS011;5700;50.996;7.044;2022-08-21T12:49:54;2.08;;;1.00;;
11287;SDS011;5700;50.996;7.044;2022-08-21T12:52:59;2.15;;;1.10;;
11287;SDS011;5700;50.996;7.044;2022-08-21T12:56:08;5.20;;;1.02;;
11287;SDS011;5700;50.996;7.044;2022-08-21T12:59:11;4.65;;;1.05;;
11287;SDS011;5700;50.996;7.044;2022-08-21T13:02:15;2.22;;;1.00;;
11287;SDS011;5700;50.996;7.044;2022-08-21T13:05:26;1.33;;;0.63;;
11287;SDS011;5700;50.996;7.044;2022-08-21T13:08:31;3.35;;;1.10;;
11287;SDS011;5700;50.996;7.044;2022-08-21T13:11:34;3.58;;;1.20;;
11287;SDS011;5700;50.996;7.044;2022-08-21T13:14:38;3.83;;;1.13;;
11287;SDS011;5700;50.996;7.044;2022-08-21T13:17:50;3.80;;;1.00;;
11287;SDS011;5700;50.996;7.044;2022-08-21T13:20:52;4.43;;;0.95;;
11287;SDS011;5700;50.996;7.044;2022-08-21T13:23:55;2.78;;;1.02;;
11287;SDS011;5700;50.996;7.044;2022-08-21T13:30:28;5.57;;;1.00;;
11287;SDS011;5700;50.996;7.044;2022-08-21T13:33:31;2.85;;;1.10;;
11287;SDS011;5700;50.996;7.044;2022-08-21T13:36:34;4.03;;;1.15;;
11287;SDS011;5700;50.996;7.044;2022-08-21T13:39:37;4.25;;;1.15;;
11287;SDS011;5700;50.996;7.044;2022-08-21T13:42:40;4.18;;;1.20;;
11287;SDS011;5700;50.996;7.044;2022-08-21T13:45:43;4.18;;;0.82;;
11287;SDS011;5700;50.996;7.044;2022-08-21T13:48:47;3.67;;;1.15;;
11287;SDS011;5700;50.996;7.044;2022-08-21T13:51:49;4.20;;;0.90;;
11287;SDS011;5700;50.996;7.044;2022-08-21T13:54:54;3.65;;;1.13;;
11287;SDS011;5700;50.996;7.044;2022-08-21T13:57:59;4.72;;;1.23;;
11287;SDS011;5700;50.996;7.044;2022-08-21T14:01:02;4.50;;;1.10;;
11287;SDS011;5700;50.996;7.044;2022-08-21T14:04:05;5.65;;;1.27;;
11287;SDS011;5700;50.996;7.044;2022-08-21T14:07:15;4.95;;;1.30;;
11287;SDS011;5700;50.996;7.044;2022-08-21T14:10:20;5.15;;;1.30;;
11287;SDS011;5700;50.996;7.044;2022-08-21T14:13:26;2.22;;;0.90;;
11287;SDS011;5700;50.996;7.044;2022-08-21T14:16:40;5.25;;;1.17;;
11287;SDS011;5700;50.996;7.044;2022-08-21T14:19:43;4.20;;;1.15;;
11287;SDS011;5700;50.996;7.044;2022-08-21T14:22:47;4.32;;;1.00;;
11287;SDS011;5700;50.996;7.044;2022-08-21T14:25:50;2.88;;;0.68;;
11287;SDS011;5700;50.996;7.044;2022-08-21T14:28:51;5.15;;;1.15;;
11287;SDS011;5700;50.996;7.044;2022-08-21T14:31:54;2.97;;;1.00;;
11287;SDS011;5700;50.996;7.044;2022-08-21T14:34:56;1.67;;;0.63;;
11287;SDS011;5700;50.996;7.044;2022-08-21T14:37:58;6.40;;;1.23;;
11287;SDS011;5700;50.996;7.044;2022-08-21T14:41:03;3.00;;;0.98;;
11287;SDS011;5700;50.996;7.044;2022-08-21T14:44:06;4.25;;;0.90;;
11287;SDS011;5700;50.996;7.044;2022-08-21T14:47:08;3.28;;;1.10;;
11287;SDS011;5700;50.996;7.044;2022-08-21T14:50:10;3.63;;;0.93;;
11287;SDS011;5700;50.996;7.044;2022-08-21T14:53:12;6.10;;;1.35;;
11287;SDS011;5700;50.996;7.044;2022-08-21T14:56:15;2.45;;;0.88;;
11287;SDS011;5700;50.996;7.044;2022-08-21T14:59:16;2.53;;;0.98;;
11287;SDS011;5700;50.996;7.044;2022-08-21T15:02:19;3.80;;;0.80;;
11287;SDS011;5700;50.996;7.044;2022-08-21T15:05:21;4.85;;;1.42;;
11287;SDS011;5700;50.996;7.044;2022-08-21T15:08:22;3.92;;;0.80;;
11287;SDS011;5700;50.996;7.044;2022-08-21T15:11:25;1.50;;;0.80;;
11287;SDS011;5700;50.996;7.044;2022-08-21T15:14:27;4.35;;;1.33;;
11287;SDS011;5700;50.996;7.044;2022-08-21T15:17:30;3.15;;;1.02;;
11287;SDS011;5700;50.996;7.044;2022-08-21T15:20:32;3.75;;;1.00;;
11287;SDS011;5700;50.996;7.044;2022-08-21T15:23:33;3.10;;;1.33;;
11287;SDS011;5700;50.996;7.044;2022-08-21T15:26:36;1.98;;;1.00;;
11287;SDS011;5700;50.996;7.044;2022-08-21T15:29:37;3.42;;;0.90;;
11287;SDS011;5700;50.996;7.044;2022-08-21T15:32:39;2.42;;;0.82;;
11287;SDS011;5700;50.996;7.044;2022-08-21T15:35:41;1.73;;;0.88;;
11287;SDS011;5700;50.996;7.044;2022-08-21T15:38:44;3.75;;;0.90;;
11287;SDS011;5700;50.996;7.044;2022-08-21T15:41:47;2.25;;;0.90;;
11287;SDS011;5700;50.996;7.044;2022-08-21T15:44:48;1.85;;;0.85;;
11287;SDS011;5700;50.996;7.044;2022-08-21T15:47:50;3.38;;;0.90;;
11287;SDS011;5700;50.996;7.044;2022-08-21T15:50:52;2.03;;;0.90;;
11287;SDS011;5700;50.996;7.044;2022-08-21T15:53:53;2.55;;;0.77;;
11287;SDS011;5700;50.996;7.044;2022-08-21T15:56:56;3.55;;;0.90;;
11287;SDS011;5700;50.996;7.044;2022-08-21T15:59:58;1.95;;;1.00;;
11287;SDS011;5700;50.996;7.044;2022-08-21T16:03:07;5.22;;;0.80;;
11287;SDS011;5700;50.996;7.044;2022-08-21T16:06:11;3.97;;;1.02;;
11287;SDS011;5700;50.996;7.044;2022-08-21T16:09:13;5.30;;;1.10;;
11287;SDS011;5700;50.996;7.044;2022-08-21T16:12:18;2.92;;;0.98;;
11287;SDS011;5700;50.996;7.044;2022-08-21T16:15:21;3.53;;;1.13;;
11287;SDS011;5700;50.996;7.044;2022-08-21T16:18:23;5.38;;;1.20;;
11287;SDS011;5700;50.996;7.044;2022-08-21T16:21:25;1.70;;;0.90;;
11287;SDS011;5700;50.996;7.044;2022-08-21T16:24:26;1.45;;;0.80;;
11287;SDS011;5700;50.996;7.044;2022-08-21T16:27:29;4.13;;;1.00;;
11287;SDS011;5700;50.996;7.044;2022-08-21T16:30:31;2.13;;;0.68;;
11287;SDS011;5700;50.996;7.044;2022-08-21T16:33:34;2.58;;;0.90;;
11287;SDS011;5700;50.996;7.044;2022-08-21T16:36:37;2.40;;;0.93;;
11287;SDS011;5700;50.996;7.044;2022-08-21T16:39:39;3.53;;;1.02;;
11287;SDS011;5700;50.996;7.044;2022-08-21T16:42:42;1.65;;;0.73;;
11287;SDS011;5700;50.996;7.044;2022-08-21T16:45:44;5.55;;;1.05;;
11287;SDS011;5700;50.996;7.044;2022-08-21T16:48:45;5.82;;;0.85;;
11287;SDS011;5700;50.996;7.044;2022-08-21T16:51:47;2.85;;;0.90;;
11287;SDS011;5700;50.996;7.044;2022-08-21T16:54:48;4.78;;;1.08;;
11287;SDS011;5700;50.996;7.044;2022-08-21T16:57:51;3.50;;;1.15;;
11287;SDS011;5700;50.996;7.044;2022-08-21T17:00:53;3.13;;;1.08;;
11287;SDS011;5700;50.996;7.044;2022-08-21T17:03:55;5.78;;;1.40;;
11287;SDS011;5700;50.996;7.044;2022-08-21T17:06:56;6.70;;;1.00;;
11287;SDS011;5700;50.996;7.044;2022-08-21T17:09:58;2.55;;;0.77;;
11287;SDS011;5700;50.996;7.044;2022-08-21T17:13:00;5.72;;;0.73;;
11287;SDS011;5700;50.996;7.044;2022-08-21T17:16:03;2.45;;;0.82;;
11287;SDS011;5700;50.996;7.044;2022-08-21T17:19:04;3.53;;;1.15;;
11287;SDS011;5700;50.996;7.044;2022-08-21T17:22:06;2.20;;;0.73;;
11287;SDS011;5700;50.996;7.044;2022-08-21T17:25:10;2.67;;;0.95;;
11287;SDS011;5700;50.996;7.044;2022-08-21T17:28:14;3.60;;;1.02;;
11287;SDS011;5700;50.996;7.044;2022-08-21T17:31:17;2.92;;;1.00;;
11287;SDS011;5700;50.996;7.044;2022-08-21T17:34:18;1.98;;;0.90;;
11287;SDS011;5700;50.996;7.044;2022-08-21T17:37:20;4.38;;;1.00;;
11287;SDS011;5700;50.996;7.044;2022-08-21T17:40:21;4.22;;;1.17;;
11287;SDS011;5700;50.996;7.044;2022-08-21T17:43:24;4.93;;;0.90;;
11287;SDS011;5700;50.996;7.044;2022-08-21T17:46:26;3.60;;;1.20;;
11287;SDS011;5700;50.996;7.044;2022-08-21T17:49:28;2.75;;;1.08;;
11287;SDS011;5700;50.996;7.044;2022-08-21T17:52:30;3.35;;;1.00;;
11287;SDS011;5700;50.996;7.044;2022-08-21T17:55:31;3.28;;;1.10;;
11287;SDS011;5700;50.996;7.044;2022-08-21T17:58:35;2.97;;;1.00;;
11287;SDS011;5700;50.996;7.044;2022-08-21T18:01:38;4.65;;;1.20;;
11287;SDS011;5700;50.996;7.044;2022-08-21T18:04:42;2.03;;;0.80;;
11287;SDS011;5700;50.996;7.044;2022-08-21T18:07:43;3.22;;;1.00;;
11287;SDS011;5700;50.996;7.044;2022-08-21T18:10:46;2.35;;;0.90;;
11287;SDS011;5700;50.996;7.044;2022-08-21T18:13:50;2.63;;;0.80;;
11287;SDS011;5700;50.996;7.044;2022-08-21T18:16:52;2.67;;;1.10;;
11287;SDS011;5700;50.996;7.044;2022-08-21T18:19:53;4.07;;;1.15;;
11287;SDS011;5700;50.996;7.044;2022-08-21T18:22:55;2.58;;;0.98;;
11287;SDS011;5700;50.996;7.044;2022-08-21T18:25:57;2.75;;;0.73;;
11287;SDS011;5700;50.996;7.044;2022-08-21T18:29:00;2.50;;;0.88;;
11287;SDS011;5700;50.996;7.044;2022-08-21T18:32:02;1.58;;;0.90;;
11287;SDS011;5700;50.996;7.044;2022-08-21T18:35:05;2.30;;;0.70;;
11287;SDS011;5700;50.996;7.044;2022-08-21T18:38:07;3.08;;;0.90;;